Time;durP1;ratioP1;P1;durP2;ratioP2;P2;SDS_P1;SDS_P2;PMS_P1;PMS_P2;Temp;Humidity;BMP_temperature;BMP_pressure;BME280_temperature;BME280_humidity;BME280_pressure;Samples;Min_cycle;Max_cycle;Signal;HPM_P1;HPM_P2
2023/09/07 00:01:36;;;;;;;5.00;2.63;;;;;;;20.75;82.58;100105.38;12154565;19;20002;-84
2023/09/07 00:05:40;;;;;;;8.77;3.00;;;;;;;20.71;82.98;100097.59;12175600;19;20013;-83
2023/09/07 00:09:41;;;;;;;4.65;2.95;;;;;;;20.78;81.00;100097.16;12157055;19;20035;-84
2023/09/07 00:13:47;;;;;;;5.68;3.03;;;;;;;20.87;79.73;100103.69;12179643;19;20052;-84
2023/09/07 00:17:51;;;;;;;4.90;2.47;;;;;;;21.01;78.60;100089.69;12178214;19;20438;-83
2023/09/07 00:21:52;;;;;;;5.05;2.97;;;;;;;21.06;77.69;100091.53;12160998;19;20007;-84
2023/09/07 00:25:54;;;;;;;5.20;3.03;;;;;;;21.07;77.58;100094.03;12185051;19;20057;-83
2023/09/07 00:29:56;;;;;;;6.20;2.67;;;;;;;21.02;77.72;100091.34;12185986;19;20018;-84
2023/09/07 00:33:58;;;;;;;9.65;3.88;;;;;;;20.96;77.97;100086.16;12191525;19;20010;-83
2023/09/07 00:38:00;;;;;;;5.43;3.20;;;;;;;20.88;78.02;100085.78;12218983;19;20007;-84
2023/09/07 00:42:02;;;;;;;5.50;3.22;;;;;;;20.76;78.59;100079.84;12199318;19;20013;-84
2023/09/07 00:46:05;;;;;;;5.95;2.72;;;;;;;20.56;79.28;100088.66;12164302;19;20027;-84
2023/09/07 00:50:08;;;;;;;7.40;3.33;;;;;;;20.51;79.13;100088.72;12187129;19;20085;-86
2023/09/07 00:54:10;;;;;;;;;;;;;;;20.49;79.08;100078.69;12187164;19;20014;-86
2023/09/07 00:58:17;;;;;;;4.05;2.90;;;;;;;20.51;78.99;100074.75;12163234;19;19914;-85
2023/09/07 01:02:20;;;;;;;4.85;2.78;;;;;;;20.43;79.41;100077.09;12187043;19;20676;-87
2023/09/07 01:06:42;;;;;;;6.07;3.25;;;;;;;20.43;79.10;100071.50;12184633;19;20027;-86
2023/09/07 01:10:44;;;;;;;5.57;2.83;;;;;;;20.46;78.72;100064.44;12161095;19;20007;-86
2023/09/07 01:14:46;;;;;;;5.03;2.95;;;;;;;20.55;77.45;100064.59;12182905;19;20018;-85
2023/09/07 01:18:49;;;;;;;7.55;3.08;;;;;;;20.70;76.35;100055.88;12161012;19;20002;-86
2023/09/07 01:23:00;;;;;;;3.97;2.90;;;;;;;20.73;75.45;100046.84;12192482;19;20002;-85
2023/09/07 01:27:05;;;;;;;4.85;2.67;;;;;;;20.69;75.73;100060.66;12181284;19;20020;-86
2023/09/07 01:31:07;;;;;;;9.02;3.45;;;;;;;20.65;76.72;100064.41;12161771;19;20043;-85
2023/09/07 01:35:11;;;;;;;6.20;3.17;;;;;;;20.45;78.26;100066.44;12177735;19;20914;-85
2023/09/07 01:39:13;;;;;;;5.25;3.08;;;;;;;20.24;80.16;100067.97;12181189;19;20485;-85
2023/09/07 01:43:16;;;;;;;9.67;4.33;;;;;;;19.93;81.99;100057.31;12164022;19;20063;-85
2023/09/07 01:47:19;;;;;;;5.88;3.55;;;;;;;19.68;84.28;100074.53;12186263;19;20553;-85
2023/09/07 01:51:21;;;;;;;12.87;5.23;;;;;;;19.45;86.01;100068.69;12185098;19;20022;-85
2023/09/07 01:55:23;;;;;;;6.25;4.28;;;;;;;19.26;87.22;100073.44;12166110;19;20832;-85
2023/09/07 01:59:26;;;;;;;;;;;;;;;19.04;88.35;100080.47;12192316;19;20014;-85
2023/09/07 02:03:27;;;;;;;10.45;4.03;;;;;;;18.89;89.92;100077.88;12209122;19;20246;-86
2023/09/07 02:07:30;;;;;;;9.50;3.92;;;;;;;18.74;92.14;100075.25;12182220;19;20385;-85
2023/09/07 02:11:32;;;;;;;6.67;3.90;;;;;;;18.62;95.09;100075.63;12203569;19;20014;-84
2023/09/07 02:15:38;;;;;;;9.18;4.32;;;;;;;18.53;97.01;100078.28;12202290;19;20272;-85
2023/09/07 02:19:41;;;;;;;8.52;3.95;;;;;;;18.37;98.43;100077.59;12181488;19;20494;-84
2023/09/07 02:23:43;;;;;;;8.38;4.25;;;;;;;18.25;99.34;100067.97;12210991;19;20063;-85
2023/09/07 02:27:47;;;;;;;4.60;3.33;;;;;;;18.16;100.00;100071.38;12183307;19;20014;-86
2023/09/07 02:31:49;;;;;;;8.77;4.32;;;;;;;18.08;100.00;100074.81;12203274;19;20016;-85
2023/09/07 02:35:51;;;;;;;8.13;3.87;;;;;;;18.01;100.00;100067.91;12203464;19;20003;-86
2023/09/07 02:39:53;;;;;;;10.13;3.90;;;;;;;17.96;100.00;100066.00;12180783;19;20007;-85
2023/09/07 02:43:54;;;;;;;6.82;3.70;;;;;;;17.92;100.00;100073.28;12210326;19;20007;-85
2023/09/07 02:47:56;;;;;;;9.60;4.28;;;;;;;17.85;100.00;100072.81;12201977;19;19998;-85
2023/09/07 02:51:59;;;;;;;8.77;4.30;;;;;;;17.79;100.00;100073.94;12178923;19;20000;-86
2023/09/07 02:56:04;;;;;;;8.57;4.22;;;;;;;17.75;100.00;100074.50;12197367;19;20112;-85
2023/09/07 03:00:09;;;;;;;8.43;4.43;;;;;;;17.74;100.00;100070.06;12202430;19;20010;-85
2023/09/07 03:04:12;;;;;;;7.97;4.63;;;;;;;17.70;100.00;100070.94;12178684;19;19998;-86
2023/09/07 03:08:14;;;;;;;5.65;3.67;;;;;;;17.65;100.00;100080.16;12202567;19;20002;-86
2023/09/07 03:12:16;;;;;;;5.53;3.90;;;;;;;17.61;100.00;100067.94;12201744;19;20730;-85
2023/09/07 03:16:18;;;;;;;7.20;4.17;;;;;;;17.54;100.00;100070.22;12177350;19;20010;-85
2023/09/07 03:20:20;;;;;;;7.68;4.57;;;;;;;17.47;100.00;100061.34;12198644;19;20015;-84
2023/09/07 03:24:26;;;;;;;5.40;3.67;;;;;;;17.40;100.00;100058.91;12198369;19;20022;-85
2023/09/07 03:28:29;;;;;;;10.50;3.83;;;;;;;17.35;100.00;100069.25;12178503;19;20033;-86
2023/09/07 03:32:33;;;;;;;5.35;3.45;;;;;;;17.28;100.00;100067.63;12198459;19;20098;-86
2023/09/07 03:36:36;;;;;;;8.27;3.47;;;;;;;17.24;100.00;100066.50;12200142;19;20007;-86
2023/09/07 03:40:37;;;;;;;5.78;3.95;;;;;;;17.23;100.00;100064.84;12176878;19;20011;-85
2023/09/07 03:44:40;;;;;;;9.40;4.38;;;;;;;17.22;100.00;100063.19;12199151;19;20002;-86
2023/09/07 03:48:43;;;;;;;6.18;4.40;;;;;;;17.23;100.00;100061.25;12179766;19;20031;-86
2023/09/07 03:52:45;;;;;;;7.60;3.83;;;;;;;17.33;100.00;100065.91;12198088;19;20039;-85
2023/09/07 03:56:47;;;;;;;7.53;4.27;;;;;;;17.44;100.00;100070.28;12198625;19;20010;-87
2023/09/07 04:00:49;;;;;;;7.70;4.10;;;;;;;17.49;100.00;100071.09;12178968;19;20002;-84
2023/09/07 04:04:55;;;;;;;5.25;3.80;;;;;;;17.51;100.00;100074.41;12197143;19;20042;-83
2023/09/07 04:08:57;;;;;;;8.52;4.57;;;;;;;17.51;100.00;100066.03;12198311;19;20007;-87
2023/09/07 04:12:59;;;;;;;6.18;4.28;;;;;;;17.45;100.00;100069.16;12175213;19;20032;-85
2023/09/07 04:17:01;;;;;;;10.60;4.80;;;;;;;17.33;100.00;100065.91;12193659;19;20830;-85
2023/09/07 04:21:07;;;;;;;6.15;4.13;;;;;;;17.20;100.00;100075.75;12198130;19;20257;-86
2023/09/07 04:25:10;;;;;;;8.48;5.13;;;;;;;17.07;100.00;100071.63;12174316;19;20069;-85
2023/09/07 04:29:12;;;;;;;9.73;5.45;;;;;;;16.95;100.00;100076.69;12196956;19;20010;-86
2023/09/07 04:33:38;;;;;;;12.35;5.68;;;;;;;16.83;100.00;100085.38;12196417;19;20010;-86
2023/09/07 04:37:46;;;;;;;7.70;4.78;;;;;;;16.75;100.00;100081.22;12179284;19;20007;-85
2023/09/07 04:42:06;;;;;;;8.20;5.45;;;;;;;16.67;100.00;100092.09;12203566;19;20006;-86
2023/09/07 04:46:15;;;;;;;8.40;4.82;;;;;;;16.57;100.00;100092.97;12175048;19;20126;-85
2023/09/07 04:50:19;;;;;;;9.00;5.15;;;;;;;16.52;100.00;100090.19;12199328;19;20007;-85
2023/09/07 04:54:23;;;;;;;9.40;5.85;;;;;;;16.54;100.00;100093.53;12197032;19;20034;-85
2023/09/07 04:58:25;;;;;;;9.88;6.50;;;;;;;16.56;100.00;100091.28;12178855;19;20075;-86
2023/09/07 05:02:28;;;;;;;9.77;5.38;;;;;;;16.57;100.00;100099.38;12199904;19;20003;-84
2023/09/07 05:06:36;;;;;;;9.18;5.20;;;;;;;16.60;100.00;100087.66;12197021;19;20023;-84
2023/09/07 05:10:41;;;;;;;9.30;4.90;;;;;;;16.68;100.00;100094.56;12178157;19;20093;-85
2023/09/07 05:14:43;;;;;;;7.82;5.18;;;;;;;16.77;100.00;100106.00;12199361;19;20007;-84
2023/09/07 05:18:47;;;;;;;7.23;4.60;;;;;;;16.95;100.00;100108.13;12178758;19;20383;-85
2023/09/07 05:22:49;;;;;;;6.88;4.30;;;;;;;17.11;100.00;100099.75;12199778;19;20007;-85
2023/09/07 05:26:55;;;;;;;6.15;3.95;;;;;;;17.45;100.00;100102.59;12204778;19;20011;-86
2023/09/07 05:30:57;;;;;;;6.97;4.47;;;;;;;17.71;100.00;100109.66;12211970;19;20016;-84
2023/09/07 05:34:59;;;;;;;5.95;3.85;;;;;;;17.89;100.00;100119.31;12247798;19;20010;-85
2023/09/07 05:39:02;;;;;;;7.47;4.40;;;;;;;17.97;100.00;100115.06;12252396;19;20042;-85
2023/09/07 05:43:05;;;;;;;6.25;3.97;;;;;;;18.01;100.00;100118.94;12221778;19;20006;-85
2023/09/07 05:47:11;;;;;;;7.95;4.40;;;;;;;18.04;100.00;100118.34;12239284;19;20011;-86
2023/09/07 05:51:13;;;;;;;6.95;4.32;;;;;;;18.09;100.00;100125.84;12229934;19;20043;-86
2023/09/07 05:55:15;;;;;;;11.80;4.35;;;;;;;18.14;100.00;100123.00;12230524;19;20028;-84
2023/09/07 05:59:19;;;;;;;6.47;4.40;;;;;;;18.29;100.00;100124.81;12251984;19;20042;-84
2023/09/07 06:03:21;;;;;;;;;;;;;;;18.39;100.00;100122.78;12251172;19;20345;-85
2023/09/07 06:07:28;;;;;;;5.85;4.25;;;;;;;18.60;100.00;100131.75;12213899;19;19918;-86
2023/09/07 06:11:31;;;;;;;5.80;3.97;;;;;;;18.70;100.00;100129.97;12211982;19;20039;-85
2023/09/07 06:15:35;;;;;;;6.82;4.25;;;;;;;18.78;100.00;100130.19;12218756;19;20607;-85
2023/09/07 06:19:37;;;;;;;8.13;4.37;;;;;;;18.86;100.00;100145.47;12209307;19;20104;-85
2023/09/07 06:23:39;;;;;;;12.17;4.80;;;;;;;18.92;100.00;100152.66;12230434;19;20284;-88
2023/09/07 06:27:41;;;;;;;5.63;4.05;;;;;;;18.98;100.00;100157.06;12231415;19;20006;-87
2023/09/07 06:31:43;;;;;;;6.30;4.53;;;;;;;19.01;100.00;100159.25;12253174;19;20005;-88
2023/09/07 06:35:45;;;;;;;9.73;4.47;;;;;;;19.10;100.00;100157.47;12219542;19;20066;-87
2023/09/07 06:39:47;;;;;;;11.60;4.73;;;;;;;19.16;100.00;100163.00;12196378;19;20030;-87
2023/09/07 06:43:49;;;;;;;6.90;4.50;;;;;;;19.23;100.00;100157.88;12217516;19;20077;-87
2023/09/07 06:47:53;;;;;;;8.15;4.45;;;;;;;19.36;100.00;100168.28;12217664;19;20066;-87
2023/09/07 06:52:03;;;;;;;7.95;5.07;;;;;;;19.50;100.00;100174.81;12202682;19;20013;-86
2023/09/07 06:56:06;;;;;;;7.30;4.57;;;;;;;19.64;100.00;100180.50;12214600;19;20006;-88
2023/09/07 07:00:08;;;;;;;8.73;4.43;;;;;;;19.76;100.00;100178.13;12216201;19;20014;-87
2023/09/07 07:04:11;;;;;;;9.10;5.03;;;;;;;19.90;100.00;100177.34;12200968;19;20010;-86
2023/09/07 07:08:13;;;;;;;9.57;5.05;;;;;;;20.06;100.00;100177.94;12212263;19;20635;-86
2023/09/07 07:12:16;;;;;;;;;;;;;;;20.17;100.00;100182.25;12215359;19;20391;-87
2023/09/07 07:16:18;;;;;;;7.03;5.03;;;;;;;20.38;98.87;100183.56;12193000;19;19990;-88
2023/09/07 07:20:21;;;;;;;7.95;4.90;;;;;;;20.52;98.12;100191.16;12213417;19;20777;-87
2023/09/07 07:24:23;;;;;;;6.50;4.90;;;;;;;20.70;97.05;100181.88;12219287;19;20035;-86
2023/09/07 07:28:26;;;;;;;11.35;4.80;;;;;;;20.93;95.41;100189.28;12195514;19;20060;-85
2023/09/07 07:32:28;;;;;;;9.13;4.93;;;;;;;21.12;93.04;100182.78;12214320;19;20029;-87
2023/09/07 07:36:31;;;;;;;8.70;4.65;;;;;;;21.33;93.01;100181.22;12211379;19;20006;-87
2023/09/07 07:40:36;;;;;;;10.02;5.40;;;;;;;21.58;90.90;100185.44;12193222;19;20010;-87
2023/09/07 07:44:39;;;;;;;;;;;;;;;21.78;90.10;100177.75;12208489;19;20014;-88
2023/09/07 07:48:41;;;;;;;11.07;4.75;;;;;;;22.01;88.05;100176.63;12190571;19;20327;-87
2023/09/07 07:52:45;;;;;;;7.05;4.85;;;;;;;22.26;88.52;100175.19;12211207;19;20010;-87
2023/09/07 07:56:47;;;;;;;8.63;5.15;;;;;;;22.49;85.98;100172.38;12212556;19;20096;-86
2023/09/07 08:00:52;;;;;;;9.70;5.00;;;;;;;22.68;83.80;100172.16;12187164;19;20464;-86
2023/09/07 08:04:59;;;;;;;8.43;5.43;;;;;;;22.97;83.52;100177.28;12213626;19;20043;-87
2023/09/07 08:09:02;;;;;;;7.35;5.03;;;;;;;23.16;80.62;100175.03;12213909;19;20829;-87
2023/09/07 08:13:04;;;;;;;8.52;5.28;;;;;;;23.30;78.82;100179.72;12194876;19;20006;-84
2023/09/07 08:17:07;;;;;;;8.20;5.05;;;;;;;23.46;78.60;100177.25;12216077;19;20042;-87
2023/09/07 08:21:10;;;;;;;9.98;5.43;;;;;;;23.61;77.35;100176.78;12221593;19;20015;-85
2023/09/07 08:25:13;;;;;;;7.40;4.70;;;;;;;23.87;77.97;100174.88;12219388;19;20014;-88
2023/09/07 08:29:20;;;;;;;6.10;4.70;;;;;;;24.15;76.84;100173.72;12241206;19;20003;-86
2023/09/07 08:33:29;;;;;;;9.85;5.55;;;;;;;24.32;74.81;100174.53;12214792;19;20392;-87
2023/09/07 08:37:33;;;;;;;7.25;5.03;;;;;;;24.47;72.22;100170.38;12194793;19;20483;-83
2023/09/07 08:41:47;;;;;;;7.35;4.80;;;;;;;24.76;73.58;100180.91;12205424;19;20075;-84
2023/09/07 08:46:21;;;;;;;7.55;5.03;;;;;;;24.94;70.98;100180.88;12188349;19;20034;-84
2023/09/07 08:50:24;;;;;;;9.30;5.13;;;;;;;25.01;71.32;100176.34;12210287;19;20085;-84
2023/09/07 08:54:27;;;;;;;8.57;5.03;;;;;;;25.21;69.46;100174.81;12208542;19;20003;-83
2023/09/07 08:58:32;;;;;;;8.13;4.40;;;;;;;25.40;66.79;100182.84;12184440;19;20537;-86
2023/09/07 09:02:37;;;;;;;7.18;5.15;;;;;;;25.60;65.25;100174.75;12204822;19;20514;-85
2023/09/07 09:06:44;;;;;;;5.63;4.38;;;;;;;25.80;64.36;100173.94;12193492;19;20023;-85
2023/09/07 09:11:05;;;;;;;7.78;4.18;;;;;;;26.04;63.47;100178.09;12213841;19;20382;-83
2023/09/07 09:15:07;;;;;;;6.13;4.32;;;;;;;26.05;60.26;100176.94;12217136;19;20050;-83
2023/09/07 09:19:09;;;;;;;7.13;5.07;;;;;;;26.16;60.48;100178.16;12198118;19;20394;-82
2023/09/07 09:23:13;;;;;;;6.90;4.60;;;;;;;26.26;61.01;100166.44;12218437;19;20010;-85
2023/09/07 09:27:17;;;;;;;7.53;4.43;;;;;;;26.37;61.93;100167.66;12216500;19;20403;-86
2023/09/07 09:31:19;;;;;;;6.13;4.57;;;;;;;26.62;58.78;100176.22;12197250;19;20423;-85
2023/09/07 09:35:23;;;;;;;;;;;;;;;26.70;58.02;100161.19;12214871;19;20007;-86
2023/09/07 09:39:25;;;;;;;5.82;4.50;;;;;;;26.80;57.82;100159.91;12215853;19;19939;-85
2023/09/07 09:43:28;;;;;;;7.20;5.10;;;;;;;27.01;57.50;100152.19;12191729;19;20018;-84
2023/09/07 09:47:31;;;;;;;6.30;4.93;;;;;;;27.14;57.48;100146.53;12213779;19;20007;-85
2023/09/07 09:51:33;;;;;;;7.25;4.78;;;;;;;27.17;57.16;100151.50;12215105;19;20616;-85
2023/09/07 09:55:35;;;;;;;5.35;4.55;;;;;;;27.18;57.02;100141.81;12194045;19;20006;-84
2023/09/07 09:59:37;;;;;;;6.00;4.70;;;;;;;27.33;58.15;100137.47;12215549;19;20027;-84
2023/09/07 10:03:45;;;;;;;;;;;;;;;27.40;56.32;100132.03;12221585;19;20010;-82
2023/09/07 10:07:50;;;;;;;6.25;4.70;;;;;;;27.64;55.78;100129.16;12241433;19;20414;-83
2023/09/07 10:11:54;;;;;;;8.25;5.07;;;;;;;27.72;55.46;100124.53;12239422;19;20010;-84
2023/09/07 10:16:07;;;;;;;7.15;4.78;;;;;;;27.84;54.64;100118.03;12192401;19;20010;-82
2023/09/07 10:20:09;;;;;;;6.15;4.60;;;;;;;27.81;54.36;100107.44;12221076;19;20021;-84
2023/09/07 10:24:24;;;;;;;6.97;4.88;;;;;;;28.08;54.19;100105.78;12222382;19;20010;-83
2023/09/07 10:28:26;;;;;;;10.65;5.05;;;;;;;28.30;53.04;100095.91;12200881;19;20029;-83
2023/09/07 10:32:39;;;;;;;6.97;5.00;;;;;;;28.45;51.40;100103.63;12222286;19;20022;-85
2023/09/07 10:36:42;;;;;;;6.93;4.80;;;;;;;28.46;51.78;100096.75;12206472;19;20007;-86
2023/09/07 10:40:47;;;;;;;6.28;4.53;;;;;;;28.58;51.23;100096.69;12225253;19;20003;-83
2023/09/07 10:44:49;;;;;;;7.05;4.43;;;;;;;28.82;50.36;100092.88;12221997;19;20003;-85
2023/09/07 10:48:52;;;;;;;;;;;;;;;29.01;49.35;100086.44;12198755;19;20021;-83
2023/09/07 10:52:55;;;;;;;5.57;3.53;;;;;;;29.21;48.83;100087.38;12219520;19;19939;-83
2023/09/07 10:57:07;;;;;;;6.38;4.03;;;;;;;29.42;46.45;100084.19;12218709;19;20490;-85
2023/09/07 11:01:09;;;;;;;;;;;;;;;29.59;46.45;100082.13;12193527;19;20014;-84
2023/09/07 11:05:11;;;;;;;6.83;3.87;;;;;;;29.87;45.77;100077.09;12217016;19;20309;-85
2023/09/07 11:09:16;;;;;;;6.20;3.50;;;;;;;29.88;44.67;100073.03;12213407;19;20011;-84
2023/09/07 11:13:18;;;;;;;6.43;3.55;;;;;;;29.79;44.63;100078.13;12191123;19;20139;-84
2023/09/07 11:17:26;;;;;;;7.22;3.88;;;;;;;29.95;44.85;100063.84;12204051;19;20013;-85
2023/09/07 11:21:31;;;;;;;7.40;4.00;;;;;;;30.04;44.01;100072.13;12208922;19;20011;-85
2023/09/07 11:25:42;;;;;;;6.85;3.95;;;;;;;30.11;41.55;100063.78;12182827;19;20489;-86
2023/09/07 11:29:55;;;;;;;6.15;3.80;;;;;;;30.21;42.53;100057.50;12207270;19;20031;-84
2023/09/07 11:33:58;;;;;;;5.90;3.92;;;;;;;30.31;42.07;100053.19;12183182;19;20027;-86
2023/09/07 11:38:01;;;;;;;;;;;;;;;30.45;42.78;100066.88;12203135;19;20011;-85
2023/09/07 11:42:04;;;;;;;5.93;3.85;;;;;;;30.94;40.62;100060.44;12189447;19;19918;-84
2023/09/07 11:46:09;;;;;;;6.65;4.03;;;;;;;31.42;39.31;100052.25;12173793;19;20493;-85
2023/09/07 11:50:13;;;;;;;6.85;4.20;;;;;;;32.03;38.29;100053.84;12199022;19;20125;-86
2023/09/07 11:54:15;;;;;;;6.60;4.60;;;;;;;32.65;36.92;100051.25;12195246;19;20604;-84
2023/09/07 11:58:18;;;;;;;5.95;4.20;;;;;;;33.13;36.85;100041.84;12170564;19;20687;-86
2023/09/07 12:06:51;;;;;;;5.60;4.90;;;;;;;33.84;34.78;100035.72;12160514;19;20006;-85
2023/09/07 12:10:53;;;;;;;5.10;4.45;;;;;;;33.91;34.41;100035.78;12196775;19;20010;-84
2023/09/07 12:14:56;;;;;;;5.40;4.65;;;;;;;34.49;34.71;100026.09;12196436;19;21494;-84
2023/09/07 12:18:57;;;;;;;6.75;4.53;;;;;;;35.18;32.51;100028.97;12172274;19;20027;-85
2023/09/07 12:23:00;;;;;;;5.03;4.53;;;;;;;35.36;32.65;100021.97;12201221;19;20015;-83
2023/09/07 12:27:03;;;;;;;5.22;4.70;;;;;;;35.74;30.93;100019.41;12201611;19;20010;-84
2023/09/07 12:31:05;;;;;;;7.05;4.75;;;;;;;36.35;30.14;100015.38;12186261;19;20017;-86
2023/09/07 12:35:08;;;;;;;5.57;4.78;;;;;;;36.72;29.54;100011.84;12201972;19;20377;-84
2023/09/07 12:39:12;;;;;;;5.90;4.53;;;;;;;37.28;30.64;100009.66;12200562;19;20771;-83
2023/09/07 12:43:14;;;;;;;5.20;4.45;;;;;;;37.84;28.36;100000.78;12186285;19;20030;-84
2023/09/07 12:47:16;;;;;;;5.63;4.38;;;;;;;37.87;27.82;100002.81;12191121;19;20014;-84
2023/09/07 12:51:19;;;;;;;5.07;4.57;;;;;;;38.26;27.55;99999.38;12191898;19;20010;-84
2023/09/07 12:55:22;;;;;;;7.47;4.55;;;;;;;38.62;26.18;99993.06;12169332;19;20011;-85
2023/09/07 12:59:24;;;;;;;5.95;4.45;;;;;;;38.69;27.13;99983.47;12192921;19;20027;-85
2023/09/07 13:03:25;;;;;;;6.63;4.30;;;;;;;38.96;26.66;99995.75;12190304;19;20046;-85
2023/09/07 13:07:27;;;;;;;5.97;4.60;;;;;;;39.27;26.02;99983.25;12161135;19;20032;-86
2023/09/07 13:11:29;;;;;;;7.03;4.50;;;;;;;39.27;25.34;99981.19;12188171;19;20017;-86
2023/09/07 13:15:31;;;;;;;6.20;5.00;;;;;;;39.51;25.00;99975.38;12186631;19;20039;-85
2023/09/07 13:19:33;;;;;;;4.65;4.10;;;;;;;39.87;25.07;99972.53;12168440;19;20010;-87
2023/09/07 13:23:35;;;;;;;6.72;4.50;;;;;;;40.20;24.33;99975.50;12195309;19;20019;-85
2023/09/07 13:27:37;;;;;;;9.48;4.13;;;;;;;40.16;24.73;99978.47;12188107;19;20021;-84
2023/09/07 13:31:38;;;;;;;5.65;4.55;;;;;;;39.96;24.61;99966.97;12166599;19;20023;-85
2023/09/07 13:35:40;;;;;;;5.88;3.88;;;;;;;39.87;24.68;99973.34;12084243;19;20015;-85
2023/09/07 13:39:42;;;;;;;5.75;4.55;;;;;;;39.98;24.63;99966.50;12201248;19;20022;-85
2023/09/07 13:43:44;;;;;;;5.03;4.28;;;;;;;40.17;24.30;99956.97;12173774;19;20641;-85
2023/09/07 13:47:46;;;;;;;6.85;4.90;;;;;;;40.58;23.66;99949.81;12186356;19;20010;-85
2023/09/07 13:51:47;;;;;;;5.57;3.92;;;;;;;40.26;23.48;99953.50;12179619;19;20011;-85
2023/09/07 13:55:50;;;;;;;5.45;4.30;;;;;;;40.37;23.73;99948.28;12198693;19;20050;-83
2023/09/07 13:59:51;;;;;;;5.43;3.97;;;;;;;40.47;23.21;99937.72;12209210;19;20008;-86
2023/09/07 14:03:54;;;;;;;5.85;4.53;;;;;;;39.58;24.46;99941.41;12194113;19;20017;-84
2023/09/07 14:07:57;;;;;;;4.32;3.90;;;;;;;38.36;24.92;99942.88;12208410;19;20018;-85
2023/09/07 14:11:58;;;;;;;9.88;4.50;;;;;;;36.95;26.23;99937.34;12181526;19;20028;-84
2023/09/07 14:16:01;;;;;;;10.40;4.57;;;;;;;35.78;27.25;99934.19;12187642;19;20031;-84
2023/09/07 14:20:04;;;;;;;6.90;4.57;;;;;;;34.84;27.88;99938.63;12206318;19;20014;-84
2023/09/07 14:24:06;;;;;;;5.03;3.97;;;;;;;34.43;28.24;99932.50;12217771;19;20023;-86
2023/09/07 14:28:08;;;;;;;8.70;3.88;;;;;;;33.96;28.96;99923.88;12187830;19;20021;-85
2023/09/07 14:32:09;;;;;;;5.00;4.13;;;;;;;33.62;29.56;99931.16;12211438;19;20070;-86
2023/09/07 14:36:11;;;;;;;6.15;4.35;;;;;;;33.29;29.88;99931.00;12208899;19;20022;-84
2023/09/07 14:40:13;;;;;;;4.43;4.00;;;;;;;33.34;29.77;99932.66;12190552;19;20022;-84
2023/09/07 14:44:15;;;;;;;8.07;4.05;;;;;;;33.44;29.83;99919.66;12213655;19;20013;-84
2023/09/07 14:48:19;;;;;;;6.13;4.53;;;;;;;33.87;29.50;99914.88;12184610;19;20443;-85
2023/09/07 14:52:27;;;;;;;6.10;4.15;;;;;;;34.22;29.22;99919.03;12206848;19;20006;-84
2023/09/07 14:56:35;;;;;;;5.82;4.00;;;;;;;34.07;29.15;99918.19;12208101;19;20015;-85
2023/09/07 15:00:37;;;;;;;8.70;4.20;;;;;;;33.96;29.75;99918.16;12175610;19;20925;-85
2023/09/07 15:04:39;;;;;;;7.10;4.32;;;;;;;33.82;30.42;99912.41;12213025;19;20007;-85
2023/09/07 15:08:40;;;;;;;9.05;4.28;;;;;;;33.66;30.85;99912.78;12197449;19;20006;-86
2023/09/07 15:12:42;;;;;;;5.45;3.78;;;;;;;33.25;30.98;99920.78;12200005;19;20023;-86
2023/09/07 15:16:45;;;;;;;5.72;3.78;;;;;;;32.78;31.29;99923.38;12174725;19;20025;-85
2023/09/07 15:20:47;;;;;;;6.43;4.07;;;;;;;32.66;31.22;99906.56;12198502;19;20015;-85
2023/09/07 15:24:49;;;;;;;8.13;3.80;;;;;;;32.62;31.35;99909.41;12214598;19;20010;-85
2023/09/07 15:28:55;;;;;;;8.68;3.97;;;;;;;32.54;31.83;99899.13;12186232;19;20501;-85
2023/09/07 15:32:57;;;;;;;6.25;3.88;;;;;;;32.16;32.44;99904.13;12202461;19;20002;-85
2023/09/07 15:37:00;;;;;;;6.53;3.72;;;;;;;31.98;32.98;99906.00;12198573;19;20659;-85
2023/09/07 15:41:04;;;;;;;5.13;4.15;;;;;;;31.75;33.68;99915.53;12193329;19;20011;-85
2023/09/07 15:45:07;;;;;;;5.78;3.65;;;;;;;31.47;33.32;99912.34;12201992;19;20011;-84
2023/09/07 15:49:09;;;;;;;8.38;3.60;;;;;;;31.13;33.84;99909.47;12212014;19;20010;-85
2023/09/07 15:53:11;;;;;;;9.45;4.25;;;;;;;30.93;34.09;99922.19;12179923;19;20010;-85
2023/09/07 15:57:14;;;;;;;6.00;3.80;;;;;;;30.75;35.01;99914.19;12207344;19;20023;-84
2023/09/07 16:01:16;;;;;;;8.35;3.55;;;;;;;30.58;35.17;99923.28;12194499;19;20698;-85
2023/09/07 16:05:17;;;;;;;5.50;3.70;;;;;;;30.44;35.62;99915.34;12209217;19;20121;-85
2023/09/07 16:09:19;;;;;;;5.85;4.20;;;;;;;30.34;35.91;99914.00;12208849;19;20663;-84
2023/09/07 16:13:31;;;;;;;6.47;3.70;;;;;;;30.33;36.76;99917.19;12210688;19;20058;-83
2023/09/07 16:17:37;;;;;;;4.50;3.15;;;;;;;30.20;37.18;99914.56;12241218;19;20006;-84
2023/09/07 16:21:48;;;;;;;5.65;3.85;;;;;;;30.17;37.31;99923.00;12229635;19;20014;-84
2023/09/07 16:25:50;;;;;;;7.95;4.07;;;;;;;30.13;37.98;99920.13;12176966;19;20085;-85
2023/09/07 16:29:52;;;;;;;8.45;4.30;;;;;;;30.03;37.91;99914.22;12206828;19;20007;-84
2023/09/07 16:33:58;;;;;;;;;;;;;;;30.03;38.13;99919.91;12195443;19;20015;-84
2023/09/07 16:38:06;;;;;;;5.60;3.00;;;;;;;30.08;38.34;99920.41;12175421;19;19947;-85
2023/09/07 16:42:07;;;;;;;5.07;3.55;;;;;;;29.79;39.66;99913.41;12196594;19;20010;-84
2023/09/07 16:46:09;;;;;;;6.68;3.97;;;;;;;29.47;40.38;99922.06;12195191;19;20485;-85
2023/09/07 16:50:13;;;;;;;6.20;3.78;;;;;;;29.15;41.75;99923.44;12175474;19;20010;-84
2023/09/07 16:54:16;;;;;;;7.85;3.47;;;;;;;28.88;42.47;99928.88;12192222;19;20023;-84
2023/09/07 16:58:18;;;;;;;6.65;3.60;;;;;;;28.63;44.13;99926.31;12177962;19;20368;-85
2023/09/07 17:02:42;;;;;;;5.47;3.33;;;;;;;28.32;45.28;99930.00;12207007;19;20466;-84
2023/09/07 17:06:44;;;;;;;5.85;3.58;;;;;;;28.02;47.22;99934.44;12190794;19;20082;-85
2023/09/07 17:10:55;;;;;;;4.95;3.45;;;;;;;27.76;48.13;99930.13;12165758;19;20054;-85
2023/09/07 17:14:59;;;;;;;6.00;3.72;;;;;;;27.50;49.91;99934.25;12192517;19;20320;-85
2023/09/07 17:19:04;;;;;;;7.63;4.10;;;;;;;27.25;51.02;99939.19;12197558;19;20014;-85
2023/09/07 17:23:06;;;;;;;8.10;4.07;;;;;;;26.98;52.27;99926.66;12178937;19;20031;-85
2023/09/07 17:27:08;;;;;;;14.35;6.28;;;;;;;26.74;53.66;99944.50;12214882;19;20006;-86
2023/09/07 17:31:14;;;;;;;11.32;5.25;;;;;;;26.47;55.50;99931.84;12217913;19;20728;-86
2023/09/07 17:35:16;;;;;;;18.20;7.25;;;;;;;26.23;56.60;99932.69;12194466;19;20007;-86
2023/09/07 17:39:18;;;;;;;10.10;5.90;;;;;;;26.01;57.23;99939.63;12216738;19;20035;-86
2023/09/07 17:43:19;;;;;;;7.63;4.32;;;;;;;25.78;58.06;99942.00;12198862;19;20354;-85
2023/09/07 17:47:27;;;;;;;9.80;4.72;;;;;;;25.52;59.53;99947.94;12216927;19;20748;-86
2023/09/07 17:51:30;;;;;;;;;;;;;;;25.26;58.94;99936.06;12218009;19;20018;-85
2023/09/07 17:55:32;;;;;;;9.80;4.30;;;;;;;25.04;60.07;99940.84;12195359;19;20158;-84
2023/09/07 17:59:35;;;;;;;11.23;4.90;;;;;;;24.82;61.78;99946.84;12220150;19;20018;-84
2023/09/07 18:03:37;;;;;;;6.15;4.22;;;;;;;24.61;62.52;99949.63;12225740;19;20032;-85
2023/09/07 18:07:40;;;;;;;7.57;4.30;;;;;;;24.40;64.07;99952.34;12186762;19;20034;-85
2023/09/07 18:11:44;;;;;;;8.20;4.40;;;;;;;24.20;64.87;99951.94;12210671;19;20651;-85
2023/09/07 18:15:47;;;;;;;6.72;4.57;;;;;;;24.02;65.94;99959.63;12212856;19;20608;-84
2023/09/07 18:19:49;;;;;;;6.47;3.55;;;;;;;23.85;66.97;99965.31;12186013;19;20022;-85
2023/09/07 18:23:51;;;;;;;8.57;4.07;;;;;;;23.72;67.41;99966.34;12215301;19;20011;-84
2023/09/07 18:27:53;;;;;;;5.80;3.85;;;;;;;23.58;67.85;99966.50;12211329;19;20747;-85
2023/09/07 18:31:55;;;;;;;7.18;3.97;;;;;;;23.50;68.02;99971.00;12182763;19;20066;-85
2023/09/07 18:36:03;;;;;;;6.55;4.57;;;;;;;23.41;68.86;99972.97;12211361;19;20021;-86
2023/09/07 18:40:05;;;;;;;11.55;4.35;;;;;;;23.30;69.41;99971.66;12215190;19;20022;-85
2023/09/07 18:44:10;;;;;;;6.20;4.57;;;;;;;23.16;70.55;99978.25;12191435;19;20020;-85
2023/09/07 18:48:12;;;;;;;6.28;3.25;;;;;;;23.06;70.90;99980.59;12213538;19;20006;-85